Time;durP1;ratioP1;P1;durP2;ratioP2;P2;SDS_P1;SDS_P2;PMS_P1;PMS_P2;Temp;Humidity;BMP_temperature;BMP_pressure;BME280_temperature;BME280_humidity;BME280_pressure;Samples;Min_cycle;Max_cycle;Signal;HPM_P1;HPM_P2
2022/12/18 05:02:38;;;;;;;66.30;34.00;;;-7.50;99.90;;;;;;6275958;22;20450;-66
2022/12/18 05:05:06;;;;;;;71.10;35.80;;;-7.50;99.90;;;;;;6277720;22;20406;-65
2022/12/18 05:07:32;;;;;;;67.67;35.70;;;-7.60;99.90;;;;;;6277535;22;20463;-66
2022/12/18 05:09:59;;;;;;;67.27;35.37;;;-7.60;99.90;;;;;;6277649;22;20440;-65
2022/12/18 05:12:26;;;;;;;68.93;37.00;;;-7.60;99.90;;;;;;6249590;22;20434;-62
2022/12/18 05:14:53;;;;;;;72.73;37.60;;;-7.70;99.90;;;;;;6247973;23;20490;-62
2022/12/18 05:17:19;;;;;;;69.43;39.70;;;-7.70;99.90;;;;;;6247198;23;20415;-62
2022/12/18 05:19:47;;;;;;;75.00;39.00;;;-7.70;99.90;;;;;;6247401;23;20406;-62
2022/12/18 05:22:14;;;;;;;72.23;37.40;;;-7.70;99.90;;;;;;6247573;22;20473;-62
2022/12/18 05:24:41;;;;;;;70.57;39.30;;;-7.70;99.90;;;;;;6252189;23;20477;-62
2022/12/18 05:27:08;;;;;;;69.13;36.80;;;-7.70;99.90;;;;;;6252856;23;20442;-62
2022/12/18 05:29:34;;;;;;;67.20;38.00;;;-7.70;99.90;;;;;;6251068;23;20767;-63
2022/12/18 05:32:01;;;;;;;64.47;36.83;;;-7.70;99.90;;;;;;6248592;22;20435;-62
2022/12/18 05:34:28;;;;;;;73.47;39.23;;;-7.70;99.90;;;;;;6249532;23;20410;-62
2022/12/18 05:36:56;;;;;;;63.53;35.03;;;-7.70;99.90;;;;;;6247952;23;20411;-62
2022/12/18 05:39:22;;;;;;;62.17;35.43;;;-7.70;99.90;;;;;;6247225;23;20410;-63
2022/12/18 05:41:49;;;;;;;63.63;35.80;;;-7.70;99.90;;;;;;6247547;22;20426;-62
2022/12/18 05:44:16;;;;;;;58.07;35.40;;;-7.70;99.90;;;;;;6247039;23;20957;-62
2022/12/18 05:46:42;;;;;;;64.30;35.20;;;-7.70;99.90;;;;;;6247848;23;20411;-62
2022/12/18 05:49:09;;;;;;;62.63;35.37;;;-7.70;99.90;;;;;;6247128;23;20411;-62
2022/12/18 05:51:36;;;;;;;65.17;36.57;;;-7.60;99.90;;;;;;6248222;22;20489;-62
2022/12/18 05:54:04;;;;;;;62.20;35.77;;;-7.70;99.90;;;;;;6247629;23;20717;-62
2022/12/18 05:56:31;;;;;;;63.20;36.17;;;-7.70;99.90;;;;;;6247532;23;20411;-63
2022/12/18 05:58:57;;;;;;;69.37;35.63;;;-7.80;99.90;;;;;;6247779;23;20410;-63
2022/12/18 06:01:27;;;;;;;72.63;37.03;;;-7.90;99.90;;;;;;6247602;22;20435;-63
2022/12/18 06:03:54;;;;;;;72.30;37.70;;;-7.90;99.90;;;;;;6247575;23;20414;-62
2022/12/18 06:06:23;;;;;;;65.80;34.33;;;-8.00;99.90;;;;;;6248099;23;20411;-63
2022/12/18 06:08:50;;;;;;;63.60;34.33;;;-8.00;99.90;;;;;;6248541;23;20439;-63
2022/12/18 06:11:20;;;;;;;64.93;34.17;;;-8.00;99.90;;;;;;6247448;22;20435;-63
2022/12/18 06:13:47;;;;;;;63.67;34.70;;;-8.00;99.90;;;;;;6250218;23;20457;-64
2022/12/18 06:16:14;;;;;;;69.57;35.83;;;-8.00;99.90;;;;;;6249896;23;20415;-63
2022/12/18 06:18:40;;;;;;;65.60;34.57;;;-8.00;99.90;;;;;;6249228;23;20871;-62
2022/12/18 06:21:07;;;;;;;62.17;35.07;;;-8.00;99.90;;;;;;6250409;22;20508;-63
2022/12/18 06:23:34;;;;;;;61.97;34.57;;;-8.00;99.90;;;;;;6249786;23;20411;-63
2022/12/18 06:26:05;;;;;;;67.23;34.50;;;-8.00;99.90;;;;;;6250193;23;20781;-63
2022/12/18 06:28:32;;;;;;;69.93;34.60;;;-8.10;99.90;;;;;;6249236;23;20926;-62
2022/12/18 06:30:59;;;;;;;60.07;34.93;;;-8.10;99.90;;;;;;6249470;22;20427;-63
2022/12/18 06:33:27;;;;;;;61.53;34.20;;;-8.10;99.90;;;;;;6249744;23;20430;-63
2022/12/18 06:35:55;;;;;;;65.67;34.73;;;-8.10;99.90;;;;;;6249518;23;20411;-63
2022/12/18 06:38:21;;;;;;;66.00;33.50;;;-8.20;99.90;;;;;;6249799;23;20410;-64
2022/12/18 06:40:48;;;;;;;67.53;34.23;;;-8.20;99.90;;;;;;6249528;22;20431;-63
2022/12/18 06:43:14;;;;;;;61.20;32.47;;;-8.20;99.90;;;;;;6249796;23;20445;-63
2022/12/18 06:45:43;;;;;;;62.87;31.40;;;-8.20;99.90;;;;;;6249550;23;20780;-63
2022/12/18 06:48:09;;;;;;;70.60;35.43;;;-8.20;99.90;;;;;;6249604;23;20768;-63
2022/12/18 06:50:36;;;;;;;60.33;33.30;;;-8.20;99.90;;;;;;6249877;22;21004;-63
2022/12/18 06:53:03;;;;;;;58.00;33.20;;;-8.10;99.90;;;;;;6249240;23;20431;-63
2022/12/18 06:55:29;;;;;;;58.00;33.40;;;-8.10;99.90;;;;;;6249515;23;20464;-62
2022/12/18 06:57:56;;;;;;;63.80;36.03;;;-8.00;99.90;;;;;;6249980;23;20465;-62
2022/12/18 07:00:22;;;;;;;58.13;32.17;;;-7.90;99.90;;;;;;6250179;22;20786;-63
2022/12/18 07:02:51;;;;;;;59.00;33.63;;;-7.90;99.90;;;;;;6249874;23;20448;-63
2022/12/18 07:05:18;;;;;;;53.17;30.47;;;-7.90;99.90;;;;;;6250271;23;20485;-63
2022/12/18 07:07:44;;;;;;;62.30;34.70;;;-7.80;99.90;;;;;;6249702;23;20407;-62
2022/12/18 07:10:11;;;;;;;54.87;33.77;;;-7.80;99.90;;;;;;6249380;22;20721;-64
2022/12/18 07:12:38;;;;;;;57.20;33.13;;;-7.80;99.90;;;;;;6250466;23;20434;-63
2022/12/18 07:15:06;;;;;;;59.97;32.50;;;-7.80;99.90;;;;;;6249373;23;20721;-62
2022/12/18 07:17:32;;;;;;;58.97;31.77;;;-7.80;99.90;;;;;;6249349;23;20415;-62
2022/12/18 07:20:00;;;;;;;51.50;31.07;;;-7.80;99.90;;;;;;6248981;23;20407;-63
2022/12/18 07:22:27;;;;;;;55.47;31.83;;;-7.90;99.90;;;;;;6249411;22;20437;-62
2022/12/18 07:24:55;;;;;;;57.13;32.70;;;-7.90;99.90;;;;;;6248978;23;20461;-63
2022/12/18 07:27:21;;;;;;;57.87;33.50;;;-7.90;99.90;;;;;;6249820;23;20460;-63
2022/12/18 07:29:48;;;;;;;55.10;30.40;;;-7.90;99.90;;;;;;6249755;23;20411;-63
2022/12/18 07:32:15;;;;;;;53.87;31.40;;;-7.90;99.90;;;;;;6248550;22;20931;-64
2022/12/18 07:34:42;;;;;;;55.57;33.00;;;-7.80;99.90;;;;;;6248542;23;20410;-63
2022/12/18 07:37:10;;;;;;;55.30;33.00;;;-7.80;99.90;;;;;;6248981;23;20419;-63
2022/12/18 07:39:37;;;;;;;52.97;31.97;;;-7.70;99.90;;;;;;6249253;23;20414;-63
2022/12/18 07:44:48;;;;;;;59.40;34.10;;;-7.50;99.90;;;;;;6249347;23;20450;-62
2022/12/18 07:47:14;;;;;;;53.80;32.87;;;-7.40;99.90;;;;;;6248983;23;20464;-62
2022/12/18 07:49:41;;;;;;;59.57;35.47;;;-7.00;99.90;;;;;;6248862;23;20465;-63
2022/12/18 07:52:09;;;;;;;53.43;34.50;;;-6.50;99.90;;;;;;6247520;22;20435;-66
2022/12/18 07:54:37;;;;;;;55.70;34.73;;;-5.90;99.90;;;;;;6247384;23;20907;-63
2022/12/18 07:57:04;;;;;;;49.67;33.90;;;-5.30;99.90;;;;;;6247598;23;20415;-63
2022/12/18 07:59:30;;;;;;;52.73;37.03;;;-4.80;99.90;;;;;;6247944;23;20415;-64
2022/12/18 08:01:57;;;;;;;47.00;33.17;;;-4.30;99.90;;;;;;6247401;22;20438;-64
2022/12/18 08:04:23;;;;;;;44.70;34.53;;;-3.90;99.90;;;;;;6247515;23;20415;-64
2022/12/18 08:06:50;;;;;;;49.37;38.23;;;-3.60;99.90;;;;;;6247918;23;20415;-64
2022/12/18 08:09:17;;;;;;;46.85;33.28;;;-3.30;99.90;;;;;;6247327;23;20844;-62
2022/12/18 08:11:45;;;;;;;43.37;32.53;;;-3.00;99.90;;;;;;6248013;22;20192;-62
2022/12/18 08:14:12;;;;;;;48.10;34.13;;;-2.60;99.90;;;;;;6249971;23;20434;-63
2022/12/18 08:16:39;;;;;;;43.10;33.87;;;-2.10;99.90;;;;;;6251108;23;20415;-63
2022/12/18 08:19:06;;;;;;;40.73;31.67;;;-1.80;99.90;;;;;;6250299;23;20437;-63
2022/12/18 08:21:32;;;;;;;40.80;31.53;;;-1.30;99.90;;;;;;6247587;22;21020;-62
2022/12/18 08:24:01;;;;;;;42.13;32.73;;;-0.80;99.90;;;;;;6247637;23;20414;-64
2022/12/18 08:26:31;;;;;;;38.10;30.90;;;-0.20;99.90;;;;;;6248010;23;20962;-63
2022/12/18 08:29:00;;;;;;;37.53;28.37;;;0.20;99.90;;;;;;6247671;23;20411;-63
2022/12/18 08:31:28;;;;;;;39.30;30.53;;;0.60;99.90;;;;;;6247571;22;20430;-63
2022/12/18 08:33:56;;;;;;;36.93;30.60;;;1.00;99.90;;;;;;6247543;23;20438;-63
2022/12/18 08:36:23;;;;;;;37.77;30.27;;;1.40;99.90;;;;;;6247501;23;20411;-63
2022/12/18 08:38:50;;;;;;;36.77;30.40;;;1.60;99.70;;;;;;6247768;23;20407;-63
2022/12/18 08:41:18;;;;;;;36.43;29.10;;;2.10;98.40;;;;;;6247071;22;20905;-63
2022/12/18 08:46:35;;;;;;;37.87;31.10;;;2.80;97.70;;;;;;6247953;23;20378;-62
2022/12/18 08:49:01;;;;;;;36.37;29.13;;;3.20;95.90;;;;;;6247895;23;20395;-62
2022/12/18 08:51:28;;;;;;;33.60;28.67;;;3.70;95.60;;;;;;6247224;22;20504;-61
2022/12/18 08:53:55;;;;;;;39.40;28.90;;;4.10;93.80;;;;;;6247156;23;20504;-62
2022/12/18 08:56:21;;;;;;;39.33;30.50;;;4.40;92.90;;;;;;6247112;23;20433;-61
2022/12/18 08:58:48;;;;;;;43.00;32.07;;;4.60;91.80;;;;;;6247561;23;20419;-61
2022/12/18 09:01:15;;;;;;;37.20;28.57;;;4.70;91.00;;;;;;6247469;22;20445;-63
2022/12/18 09:03:42;;;;;;;36.80;29.23;;;5.10;88.70;;;;;;6247314;23;20914;-63
2022/12/18 09:06:15;;;;;;;36.80;28.30;;;5.20;86.60;;;;;;6247557;23;20482;-62
2022/12/18 09:08:42;;;;;;;40.53;31.10;;;4.30;83.40;;;;;;6247973;23;20761;-62
2022/12/18 09:11:14;;;;;;;41.03;33.83;;;3.40;86.90;;;;;;6246844;22;20930;-62
2022/12/18 09:13:40;;;;;;;42.57;33.00;;;2.30;90.20;;;;;;6247343;23;20426;-62
2022/12/18 09:16:07;;;;;;;42.70;31.80;;;1.30;92.50;;;;;;6247384;23;20480;-62
2022/12/18 09:18:34;;;;;;;45.40;34.10;;;0.70;94.60;;;;;;6246985;23;20490;-62
2022/12/18 09:21:09;;;;;;;46.87;33.17;;;0.20;96.20;;;;;;6247319;22;20431;-63
2022/12/18 09:23:35;;;;;;;45.10;35.90;;;-0.40;98.30;;;;;;6247349;23;20391;-65
2022/12/18 09:26:02;;;;;;;44.53;34.60;;;-0.90;99.90;;;;;;6247161;23;20415;-63
2022/12/18 09:28:29;;;;;;;42.80;34.13;;;-1.30;99.90;;;;;;6247359;23;20461;-65
2022/12/18 09:30:56;;;;;;;48.90;35.87;;;-1.70;99.90;;;;;;6247175;22;20685;-65
2022/12/18 09:33:22;;;;;;;45.60;34.20;;;-1.90;99.90;;;;;;6247128;23;20431;-64
2022/12/18 09:35:49;;;;;;;53.40;35.90;;;-2.30;99.90;;;;;;6247430;23;20410;-66
2022/12/18 09:38:19;;;;;;;50.13;35.27;;;-2.60;99.90;;;;;;6247823;23;20468;-66
2022/12/18 09:40:49;;;;;;;49.00;32.70;;;-2.70;99.90;;;;;;6247564;22;20517;-65
2022/12/18 09:43:19;;;;;;;45.87;34.17;;;-2.70;99.90;;;;;;6248614;23;20391;-66
2022/12/18 09:45:50;;;;;;;45.90;34.90;;;-2.80;99.90;;;;;;6254696;23;20401;-66
2022/12/18 09:48:20;;;;;;;45.80;34.80;;;-2.80;99.90;;;;;;6253753;23;20395;-66
2022/12/18 09:50:48;;;;;;;51.20;36.27;;;-2.70;99.90;;;;;;6255093;22;20430;-65
2022/12/18 09:53:21;;;;;;;49.80;36.17;;;-2.60;99.90;;;;;;6248471;23;20430;-65
2022/12/18 09:55:49;;;;;;;50.70;35.30;;;-2.60;99.90;;;;;;6249172;23;20395;-65
2022/12/18 09:58:21;;;;;;;48.53;36.10;;;-2.60;99.90;;;;;;6248329;23;20411;-65
2022/12/18 10:00:47;;;;;;;53.80;37.93;;;-2.60;99.90;;;;;;6247745;22;20442;-65
2022/12/18 10:03:16;;;;;;;52.70;39.17;;;-2.60;99.90;;;;;;6247973;23;20722;-66
2022/12/18 10:05:52;;;;;;;53.47;38.07;;;-2.50;99.90;;;;;;6248068;23;20410;-65
2022/12/18 10:08:25;;;;;;;62.77;43.87;;;-2.40;99.90;;;;;;6248172;23;20718;-66
2022/12/18 10:10:54;;;;;;;51.93;37.83;;;-2.20;99.90;;;;;;6247606;22;20509;-65
2022/12/18 10:13:25;;;;;;;48.50;34.60;;;-1.60;99.90;;;;;;6247594;23;20489;-65
2022/12/18 10:16:15;;;;;;;50.60;37.03;;;-1.10;99.90;;;;;;6247307;23;20482;-66
2022/12/18 10:19:02;;;;;;;50.70;36.50;;;-0.70;99.90;;;;;;6247803;23;20395;-66
2022/12/18 10:21:34;;;;;;;49.47;38.00;;;-0.70;99.90;;;;;;6247580;22;20489;-65
2022/12/18 10:24:14;;;;;;;52.43;39.07;;;-0.90;99.90;;;;;;6247809;23;20766;-68
2022/12/18 10:26:42;;;;;;;51.37;38.47;;;-1.00;99.90;;;;;;6247905;23;20395;-64
2022/12/18 10:29:11;;;;;;;48.13;35.50;;;-0.90;99.90;;;;;;6248562;23;20468;-64
2022/12/18 10:31:38;;;;;;;51.03;37.47;;;-0.90;99.90;;;;;;6247501;22;20823;-64
2022/12/18 10:34:05;;;;;;;57.03;38.17;;;-0.90;99.90;;;;;;6247233;23;20435;-64
2022/12/18 10:36:31;;;;;;;45.87;34.40;;;-0.80;99.90;;;;;;6247374;23;20411;-64
2022/12/18 10:39:17;;;;;;;45.23;34.47;;;-0.60;99.90;;;;;;6246619;23;20469;-66
2022/12/18 10:41:44;;;;;;;44.77;34.70;;;-0.20;99.90;;;;;;6246966;22;20809;-66
2022/12/18 10:44:13;;;;;;;46.53;33.70;;;0.20;99.90;;;;;;6246963;23;20407;-66
2022/12/18 10:46:40;;;;;;;47.73;34.67;;;0.60;99.90;;;;;;6247296;23;20461;-65
2022/12/18 10:49:20;;;;;;;43.80;33.30;;;0.90;99.90;;;;;;6246987;23;20782;-65
2022/12/18 10:51:47;;;;;;;42.47;32.27;;;1.00;99.90;;;;;;6247078;22;20431;-65
2022/12/18 10:54:18;;;;;;;44.33;32.67;;;1.00;99.90;;;;;;6248225;23;20419;-66
2022/12/18 10:56:46;;;;;;;43.27;32.47;;;0.90;99.90;;;;;;6248323;23;20406;-66
2022/12/18 10:59:15;;;;;;;48.13;34.57;;;0.70;99.90;;;;;;6248340;23;20411;-67
2022/12/18 11:01:50;;;;;;;45.80;34.57;;;0.40;99.90;;;;;;6251182;22;20447;-67
2022/12/18 11:04:21;;;;;;;47.73;33.13;;;0.20;99.90;;;;;;6253235;23;20456;-68
2022/12/18 11:06:57;;;;;;;41.13;30.73;;;0.20;99.90;;;;;;6253456;23;20484;-67
2022/12/18 11:09:26;;;;;;;45.07;34.00;;;0.10;99.90;;;;;;6253026;23;20410;-68
2022/12/18 11:11:55;;;;;;;43.70;32.00;;;0.10;99.90;;;;;;6252083;22;20431;-67
2022/12/18 11:14:24;;;;;;;44.10;31.73;;;0.20;99.90;;;;;;6257315;23;20438;-68
2022/12/18 11:16:52;;;;;;;45.90;34.30;;;0.10;99.90;;;;;;6251869;23;20468;-66
2022/12/18 11:19:34;;;;;;;44.87;33.20;;;0.20;99.90;;;;;;6251930;23;20435;-69
2022/12/18 11:22:02;;;;;;;46.13;33.80;;;0.30;99.90;;;;;;6251504;22;20426;-66
2022/12/18 11:24:32;;;;;;;46.80;34.17;;;0.40;99.90;;;;;;6251084;23;20415;-65
2022/12/18 11:27:02;;;;;;;46.00;33.33;;;0.50;99.90;;;;;;6249881;23;20868;-64
2022/12/18 11:29:34;;;;;;;45.03;34.10;;;0.50;99.90;;;;;;6255290;23;20435;-67
2022/12/18 11:32:24;;;;;;;42.10;31.77;;;0.40;99.90;;;;;;6250944;22;20481;-66
2022/12/18 11:34:58;;;;;;;47.60;35.43;;;0.50;99.90;;;;;;6249170;23;20722;-66
2022/12/18 11:37:25;;;;;;;47.70;34.57;;;0.50;99.90;;;;;;6251866;23;20774;-68
2022/12/18 11:39:58;;;;;;;48.00;34.90;;;0.60;99.90;;;;;;6252480;23;20477;-68
2022/12/18 11:42:31;;;;;;;47.20;33.03;;;0.60;99.90;;;;;;6254652;22;20795;-68
2022/12/18 11:45:01;;;;;;;47.47;33.60;;;0.60;99.90;;;;;;6255844;23;20445;-68
2022/12/18 11:47:36;;;;;;;48.93;35.23;;;0.60;99.90;;;;;;6255530;23;20403;-68
2022/12/18 11:50:10;;;;;;;48.80;33.93;;;0.60;99.90;;;;;;6253178;23;20394;-69
2022/12/18 11:52:40;;;;;;;45.43;32.40;;;0.60;99.90;;;;;;6251338;22;20488;-68
2022/12/18 11:55:14;;;;;;;46.80;33.60;;;0.60;99.90;;;;;;6251595;23;20783;-68
2022/12/18 11:57:51;;;;;;;47.00;33.77;;;0.70;99.90;;;;;;6251133;23;20418;-68
2022/12/18 12:00:19;;;;;;;44.50;33.20;;;0.70;99.90;;;;;;6262867;22;20402;-68
2022/12/18 12:03:05;;;;;;;46.50;33.60;;;0.80;99.90;;;;;;6253745;23;20401;-68
2022/12/18 12:05:49;;;;;;;45.37;33.10;;;0.80;99.90;;;;;;6249106;23;20494;-67
2022/12/18 12:08:22;;;;;;;49.70;33.33;;;0.80;99.90;;;;;;6247783;23;20545;-66
2022/12/18 12:11:00;;;;;;;49.97;36.37;;;0.70;99.90;;;;;;6247443;22;20485;-66
2022/12/18 12:13:40;;;;;;;45.30;33.07;;;0.80;99.90;;;;;;6247611;23;20422;-65
2022/12/18 12:16:16;;;;;;;47.77;34.53;;;0.80;99.90;;;;;;6247649;23;20394;-66
2022/12/18 12:18:59;;;;;;;48.37;35.00;;;0.80;99.90;;;;;;6247278;23;20924;-66
2022/12/18 12:21:35;;;;;;;51.93;36.13;;;0.80;99.90;;;;;;6248404;22;20435;-65
2022/12/18 12:24:17;;;;;;;52.70;35.80;;;0.70;99.90;;;;;;6248780;23;20398;-66
2022/12/18 12:26:57;;;;;;;49.20;35.10;;;0.60;99.90;;;;;;6247796;23;20400;-66
2022/12/18 12:29:36;;;;;;;46.27;33.30;;;0.80;99.90;;;;;;6248051;23;20398;-65
2022/12/18 12:32:14;;;;;;;45.60;33.50;;;0.70;99.90;;;;;;6255261;22;20435;-67
2022/12/18 12:34:54;;;;;;;46.83;33.50;;;0.60;99.90;;;;;;6256103;23;20423;-66
2022/12/18 12:37:31;;;;;;;44.77;32.53;;;0.60;99.90;;;;;;6251701;23;20395;-69
2022/12/18 12:39:59;;;;;;;47.83;34.07;;;0.60;99.90;;;;;;6249807;23;20426;-69
2022/12/18 12:45:23;;;;;;;47.20;34.10;;;0.80;99.90;;;;;;6249432;23;20383;-68
2022/12/18 12:47:51;;;;;;;49.70;35.10;;;0.70;99.90;;;;;;6249742;23;20764;-68
2022/12/18 12:50:21;;;;;;;46.97;32.93;;;0.80;99.90;;;;;;6248586;22;20464;-68
2022/12/18 12:52:51;;;;;;;44.97;32.67;;;0.80;99.90;;;;;;6248762;23;20468;-69
2022/12/18 12:55:21;;;;;;;42.93;31.90;;;0.90;99.90;;;;;;6248010;23;20754;-68
2022/12/18 12:57:58;;;;;;;49.50;33.67;;;0.80;99.90;;;;;;6249246;23;20410;-69
2022/12/18 13:00:34;;;;;;;45.67;32.77;;;0.70;99.90;;;;;;6249395;22;20395;-68
2022/12/18 13:03:09;;;;;;;45.10;32.60;;;0.70;99.90;;;;;;6248616;23;20399;-67
2022/12/18 13:05:42;;;;;;;43.87;32.23;;;0.60;99.90;;;;;;6249060;23;20430;-70
2022/12/18 13:08:11;;;;;;;45.93;33.67;;;0.50;99.90;;;;;;6250363;23;20395;-69
2022/12/18 13:10:38;;;;;;;42.40;32.33;;;0.50;99.90;;;;;;6249059;22;20484;-68
2022/12/18 13:13:09;;;;;;;46.07;34.30;;;0.60;99.90;;;;;;6249564;23;20888;-67
2022/12/18 13:15:39;;;;;;;44.53;32.37;;;0.60;99.90;;;;;;6248610;23;20502;-69
2022/12/18 13:18:18;;;;;;;43.80;32.73;;;0.70;99.90;;;;;;6248031;23;20857;-69
2022/12/18 13:20:47;;;;;;;40.50;30.97;;;0.70;99.90;;;;;;6247946;22;20430;-69
2022/12/18 13:23:36;;;;;;;40.50;31.90;;;0.70;99.90;;;;;;6247700;23;20422;-69
2022/12/18 13:26:32;;;;;;;43.80;31.77;;;0.80;99.90;;;;;;6243895;23;20415;-68
2022/12/18 13:29:03;;;;;;;51.80;33.77;;;0.80;99.90;;;;;;6248818;23;20434;-68
2022/12/18 13:32:01;;;;;;;46.23;32.50;;;0.80;99.90;;;;;;6248161;22;20517;-67
2022/12/18 13:34:30;;;;;;;45.17;32.57;;;0.70;99.90;;;;;;6180549;23;20449;-69
2022/12/18 13:37:18;;;;;;;45.70;33.17;;;0.70;99.90;;;;;;6247043;23;20411;-71
2022/12/18 13:39:45;;;;;;;47.30;32.40;;;0.80;99.90;;;;;;6246724;23;20411;-67
2022/12/18 13:45:43;;;;;;;42.47;31.90;;;0.90;99.90;;;;;;6246902;23;20375;-64
2022/12/18 13:48:21;;;;;;;43.40;31.63;;;1.00;99.90;;;;;;6247503;23;20449;-66
2022/12/18 13:50:57;;;;;;;43.80;31.43;;;1.00;99.90;;;;;;6246909;22;20431;-65
2022/12/18 13:53:28;;;;;;;45.07;32.90;;;1.00;99.90;;;;;;6246690;23;20418;-66
2022/12/18 13:55:55;;;;;;;46.47;33.33;;;1.00;99.90;;;;;;6246376;23;20856;-69
2022/12/18 13:58:22;;;;;;;48.50;33.33;;;1.00;99.90;;;;;;6246523;23;20469;-70
2022/12/18 14:00:50;;;;;;;44.33;32.90;;;1.00;99.90;;;;;;6246329;22;20442;-70
2022/12/18 14:03:23;;;;;;;41.67;31.97;;;1.00;99.90;;;;;;6246472;23;20460;-70
2022/12/18 14:05:56;;;;;;;44.20;33.50;;;1.00;99.90;;;;;;6246600;23;20387;-69
2022/12/18 14:08:22;;;;;;;42.63;32.03;;;1.00;99.90;;;;;;6246490;23;20486;-70
2022/12/18 14:10:52;;;;;;;48.00;34.53;;;0.90;99.90;;;;;;6246492;22;20439;-70
2022/12/18 14:13:24;;;;;;;45.33;33.03;;;0.90;99.90;;;;;;6246552;23;20399;-70
2022/12/18 14:15:52;;;;;;;46.50;32.20;;;0.90;99.90;;;;;;6246476;23;20477;-70
2022/12/18 14:18:23;;;;;;;48.03;35.27;;;0.80;99.90;;;;;;6246556;23;20833;-70
2022/12/18 14:20:52;;;;;;;45.30;31.70;;;0.70;99.90;;;;;;6247290;22;20435;-70
2022/12/18 14:23:34;;;;;;;43.53;30.93;;;0.60;99.90;;;;;;6247426;23;20595;-70
2022/12/18 14:26:01;;;;;;;46.47;34.07;;;0.60;99.90;;;;;;6246891;23;20414;-70
2022/12/18 14:28:28;;;;;;;46.37;33.00;;;0.50;99.90;;;;;;6247022;23;20790;-70
2022/12/18 14:30:57;;;;;;;43.43;32.90;;;0.50;99.90;;;;;;6246433;22;20438;-71
2022/12/18 14:33:25;;;;;;;46.20;32.20;;;0.50;99.90;;;;;;6247610;23;20490;-70
2022/12/18 14:35:58;;;;;;;45.23;32.00;;;0.40;99.90;;;;;;6248528;23;20431;-70
2022/12/18 14:38:28;;;;;;;47.50;32.50;;;0.40;99.90;;;;;;6248620;23;20403;-70
2022/12/18 14:40:57;;;;;;;48.30;33.83;;;0.30;99.90;;;;;;6249135;22;20427;-71
2022/12/18 14:43:24;;;;;;;51.90;33.83;;;0.30;99.90;;;;;;6248256;23;20410;-70
2022/12/18 14:45:51;;;;;;;45.60;33.33;;;0.20;99.90;;;;;;6249032;23;20411;-70
2022/12/18 14:48:22;;;;;;;48.67;34.40;;;0.10;99.90;;;;;;6250648;23;20410;-71
2022/12/18 14:50:57;;;;;;;47.13;33.00;;;0.00;99.90;;;;;;6249951;22;20434;-71
2022/12/18 14:53:38;;;;;;;44.80;33.10;;;0.00;99.90;;;;;;6250900;23;20697;-71
2022/12/18 14:56:17;;;;;;;47.73;32.50;;;0.00;99.90;;;;;;6248975;23;20419;-70
2022/12/18 14:58:53;;;;;;;50.47;35.63;;;-0.10;99.90;;;;;;6248729;23;20767;-70
2022/12/18 15:01:26;;;;;;;52.80;35.07;;;-0.20;99.90;;;;;;6248398;22;20438;-71
2022/12/18 15:03:56;;;;;;;50.67;36.07;;;-0.40;99.90;;;;;;6258446;23;20403;-70
2022/12/18 15:06:34;;;;;;;51.53;34.37;;;-0.50;99.90;;;;;;6248679;23;20465;-71
2022/12/18 15:09:04;;;;;;;48.13;35.17;;;-0.60;99.90;;;;;;6248239;23;20391;-71
2022/12/18 15:11:36;;;;;;;50.07;37.17;;;-0.70;99.90;;;;;;6248198;22;20437;-70
2022/12/18 15:14:25;;;;;;;50.00;37.50;;;-0.80;99.90;;;;;;6248753;23;20395;-70
2022/12/18 15:16:53;;;;;;;53.30;39.13;;;-1.00;99.90;;;;;;6248079;23;20453;-71
2022/12/18 15:19:23;;;;;;;55.53;38.50;;;-1.10;99.90;;;;;;6248498;23;20414;-70
2022/12/18 15:21:50;;;;;;;49.03;35.50;;;-1.20;99.90;;;;;;6247996;22;20435;-70
2022/12/18 15:24:24;;;;;;;54.63;38.20;;;-1.30;99.90;;;;;;6248199;23;20433;-70
2022/12/18 15:26:51;;;;;;;55.77;38.33;;;-1.30;99.90;;;;;;6248122;23;20452;-70
2022/12/18 15:29:21;;;;;;;53.67;38.47;;;-1.40;99.90;;;;;;6248276;23;20411;-70
2022/12/18 15:31:59;;;;;;;51.77;39.60;;;-1.50;99.90;;;;;;6249136;22;20509;-71
2022/12/18 15:34:28;;;;;;;53.47;39.80;;;-1.60;99.90;;;;;;6248482;23;20419;-71
2022/12/18 15:36:55;;;;;;;50.60;38.23;;;-1.70;99.90;;;;;;6247967;23;20445;-71
2022/12/18 15:39:22;;;;;;;53.07;37.50;;;-1.70;99.90;;;;;;6247920;23;20414;-70
2022/12/18 15:44:33;;;;;;;51.00;38.10;;;-1.80;99.90;;;;;;6258236;23;20378;-70
2022/12/18 15:47:00;;;;;;;52.90;36.80;;;-1.80;99.90;;;;;;6247504;23;20407;-71
2022/12/18 15:49:28;;;;;;;51.63;36.37;;;-1.90;99.90;;;;;;6248318;23;20411;-71
2022/12/18 15:51:57;;;;;;;52.40;36.07;;;-2.00;99.90;;;;;;6257708;22;20434;-70
2022/12/18 15:59:48;;;;;;;52.77;35.40;;;-2.10;99.90;;;;;;6247518;23;20446;-71
2022/12/18 16:02:18;;;;;;;50.60;34.47;;;-2.10;99.90;;;;;;6248131;22;20438;-71
2022/12/18 16:04:46;;;;;;;53.43;34.87;;;-2.20;99.90;;;;;;6247928;23;20388;-71
2022/12/18 16:07:13;;;;;;;53.77;34.67;;;-2.10;99.90;;;;;;6247748;23;20410;-71
2022/12/18 16:09:40;;;;;;;55.30;37.23;;;-2.20;99.90;;;;;;6248015;23;20421;-71
2022/12/18 16:12:15;;;;;;;52.97;36.43;;;-2.20;99.90;;;;;;6247699;22;20426;-71
2022/12/18 16:14:41;;;;;;;51.20;36.80;;;-2.20;99.90;;;;;;6247741;23;20423;-71
2022/12/18 16:17:12;;;;;;;48.23;32.63;;;-2.20;99.90;;;;;;6247634;23;20445;-71
2022/12/18 16:19:39;;;;;;;49.70;34.47;;;-2.20;99.90;;;;;;6247615;23;20398;-71
2022/12/18 16:22:20;;;;;;;53.03;36.87;;;-2.30;99.90;;;;;;6247716;22;20426;-71
2022/12/18 16:24:47;;;;;;;46.37;33.87;;;-2.30;99.90;;;;;;6247765;23;20415;-71
2022/12/18 16:27:14;;;;;;;49.60;33.77;;;-2.30;99.90;;;;;;6247697;23;20406;-71
2022/12/18 16:29:40;;;;;;;47.47;34.83;;;-2.20;99.90;;;;;;6247414;23;20461;-71
2022/12/18 16:32:08;;;;;;;54.43;37.00;;;-2.20;99.90;;;;;;6247248;22;20932;-70
2022/12/18 16:34:35;;;;;;;49.47;34.60;;;-2.20;99.90;;;;;;6247222;23;20794;-69
2022/12/18 16:37:04;;;;;;;51.97;35.63;;;-2.20;99.90;;;;;;6247614;23;20742;-70
2022/12/18 16:39:33;;;;;;;52.33;34.93;;;-2.30;99.90;;;;;;6247661;23;20414;-69
2022/12/18 16:41:59;;;;;;;49.57;33.30;;;-2.30;99.90;;;;;;6247235;22;20435;-69
2022/12/18 16:44:26;;;;;;;53.57;33.23;;;-2.30;99.90;;;;;;6247607;23;20465;-69
2022/12/18 16:46:53;;;;;;;52.07;35.70;;;-2.30;99.90;;;;;;6247640;23;20406;-69
2022/12/18 16:49:21;;;;;;;51.93;34.20;;;-2.30;99.90;;;;;;6247379;23;20794;-69
2022/12/18 16:51:47;;;;;;;48.30;34.53;;;-2.30;99.90;;;;;;6247719;22;20490;-69
2022/12/18 16:54:14;;;;;;;53.97;35.03;;;-2.30;99.90;;;;;;6247698;23;20461;-69
2022/12/18 16:56:42;;;;;;;55.00;34.50;;;-2.40;99.90;;;;;;6246629;23;20912;-69
2022/12/18 16:59:11;;;;;;;49.33;33.70;;;-2.40;99.90;;;;;;6247645;23;20449;-69
2022/12/18 17:01:40;;;;;;;56.23;34.87;;;-2.40;99.90;;;;;;6250513;22;20443;-73
2022/12/18 17:04:08;;;;;;;53.73;32.33;;;-2.40;99.90;;;;;;6256662;23;20490;-75
2022/12/18 17:06:36;;;;;;;48.50;34.93;;;-2.40;99.90;;;;;;6266646;23;20791;-73
2022/12/18 17:09:05;;;;;;;43.63;31.30;;;-2.40;99.90;;;;;;6255557;23;20461;-73
2022/12/18 17:11:34;;;;;;;47.67;33.13;;;-2.40;99.90;;;;;;6249970;22;20484;-73
2022/12/18 17:14:06;;;;;;;51.63;34.20;;;-2.40;99.90;;;;;;6249186;23;20403;-73
2022/12/18 17:16:33;;;;;;;50.20;34.13;;;-2.40;99.90;;;;;;6250149;23;20423;-73
2022/12/18 17:19:00;;;;;;;51.10;33.33;;;-2.40;99.90;;;;;;6247795;23;20547;-73
2022/12/18 17:21:27;;;;;;;47.60;32.90;;;-2.40;99.90;;;;;;6247852;22;20431;-73
2022/12/18 17:23:54;;;;;;;46.87;33.33;;;-2.40;99.90;;;;;;6246815;23;20900;-73
2022/12/18 17:26:20;;;;;;;46.77;33.13;;;-2.40;99.90;;;;;;6257224;23;20744;-72
2022/12/18 17:28:47;;;;;;;51.13;32.90;;;-2.30;99.90;;;;;;6247317;23;20791;-73
2022/12/18 17:31:19;;;;;;;48.40;31.67;;;-2.30;99.90;;;;;;6247760;22;20741;-72
2022/12/18 17:33:46;;;;;;;44.93;31.87;;;-2.40;99.90;;;;;;6247232;23;20445;-68
2022/12/18 17:36:14;;;;;;;46.87;33.33;;;-2.30;99.90;;;;;;6246780;23;20435;-69
2022/12/18 17:38:41;;;;;;;44.47;30.73;;;-2.30;99.90;;;;;;6247224;23;20505;-69
2022/12/18 17:41:09;;;;;;;48.00;32.50;;;-2.30;99.90;;;;;;6246801;22;20442;-69
2022/12/18 17:43:38;;;;;;;45.23;31.30;;;-2.30;99.90;;;;;;6247380;23;20415;-69
2022/12/18 17:46:05;;;;;;;47.53;33.67;;;-2.20;99.90;;;;;;6248418;23;20481;-70
2022/12/18 17:48:34;;;;;;;43.30;29.70;;;-2.20;99.90;;;;;;6247564;23;20468;-70
2022/12/18 17:51:01;;;;;;;45.60;31.27;;;-2.20;99.90;;;;;;6247726;22;20481;-70
2022/12/18 17:53:27;;;;;;;42.50;30.00;;;-2.20;99.90;;;;;;6247524;23;20465;-70
2022/12/18 17:55:55;;;;;;;43.40;30.83;;;-2.20;99.90;;;;;;6247470;23;20435;-69
2022/12/18 17:58:22;;;;;;;43.83;31.37;;;-2.20;99.90;;;;;;6247598;23;20888;-70
2022/12/18 18:00:49;;;;;;;46.17;32.10;;;-2.20;99.90;;;;;;6247291;22;20470;-73
2022/12/18 18:03:16;;;;;;;41.50;29.90;;;-2.20;99.90;;;;;;6247577;23;20402;-73
2022/12/18 18:05:44;;;;;;;43.20;31.60;;;-2.20;99.90;;;;;;6247794;23;20465;-73